Time;durP1;ratioP1;P1;durP2;ratioP2;P2;SDS_P1;SDS_P2;PMS_P1;PMS_P2;Temp;Humidity;BMP_temperature;BMP_pressure;BME280_temperature;BME280_humidity;BME280_pressure;Samples;Min_cycle;Max_cycle;Signal;HPM_P1;HPM_P2
2022/12/02 00:00:42;;;;;;;43.00;24.45;;;4.90;74.50;;;;;;4991309;28;20046;-78
2022/12/02 00:03:12;;;;;;;40.50;21.90;;;4.90;74.40;;;;;;4996341;28;20078;-77
2022/12/02 00:05:37;;;;;;;39.72;23.75;;;4.90;74.40;;;;;;5000652;28;20489;-78
2022/12/02 00:08:23;;;;;;;46.25;23.40;;;4.90;74.60;;;;;;4995458;28;20048;-78
2022/12/02 00:10:51;;;;;;;44.17;23.48;;;4.90;74.80;;;;;;5007720;28;20053;-76
2022/12/02 00:13:19;;;;;;;44.45;22.95;;;4.80;74.80;;;;;;5005643;28;20046;-77
2022/12/02 00:15:48;;;;;;;39.33;22.98;;;4.90;75.00;;;;;;4995766;28;20080;-78
2022/12/02 00:18:15;;;;;;;41.22;23.52;;;4.90;75.10;;;;;;4995084;28;20077;-77
2022/12/02 00:20:42;;;;;;;43.92;24.02;;;4.90;75.10;;;;;;5005515;28;20077;-78
2022/12/02 00:23:09;;;;;;;44.30;24.20;;;4.80;75.10;;;;;;5012615;28;20064;-77
2022/12/02 00:25:35;;;;;;;47.60;25.40;;;4.80;75.20;;;;;;4995270;28;20528;-75
2022/12/02 00:28:01;;;;;;;47.65;24.55;;;4.80;75.20;;;;;;5009555;28;20041;-76
2022/12/02 00:30:27;;;;;;;47.70;25.73;;;4.80;75.20;;;;;;5015022;28;20550;-76
2022/12/02 00:32:53;;;;;;;44.60;23.67;;;4.80;75.30;;;;;;5010181;28;20091;-77
2022/12/02 00:35:19;;;;;;;44.90;24.77;;;4.80;75.20;;;;;;4978959;28;20088;-77
2022/12/02 00:37:44;;;;;;;44.53;23.98;;;4.70;75.10;;;;;;4976601;28;20039;-76
2022/12/02 00:40:11;;;;;;;47.35;24.65;;;4.80;75.30;;;;;;4983339;28;20098;-75
2022/12/02 00:42:36;;;;;;;48.03;25.23;;;4.80;75.30;;;;;;4982784;28;20045;-78
2022/12/02 00:47:47;;;;;;;46.75;24.75;;;4.80;75.40;;;;;;5014628;28;20049;-77
2022/12/02 00:50:13;;;;;;;53.70;25.52;;;4.70;75.30;;;;;;5016562;28;20042;-77
2022/12/02 00:52:38;;;;;;;50.80;23.95;;;4.70;75.30;;;;;;4998690;28;20049;-77
2022/12/02 00:55:05;;;;;;;55.50;27.70;;;4.80;75.30;;;;;;5001694;28;20416;-77
2022/12/02 00:57:30;;;;;;;53.67;26.50;;;4.70;75.30;;;;;;5011198;28;20046;-78
2022/12/02 00:59:56;;;;;;;51.70;26.35;;;4.70;75.40;;;;;;4998816;28;20046;-77
2022/12/02 01:02:21;;;;;;;53.25;26.70;;;4.60;75.40;;;;;;4985193;28;20135;-77
2022/12/02 01:04:47;;;;;;;41.42;22.52;;;4.70;75.50;;;;;;5002627;28;20535;-76
2022/12/02 01:07:13;;;;;;;51.17;25.65;;;4.60;75.60;;;;;;4998571;28;20520;-76
2022/12/02 01:09:39;;;;;;;52.58;27.45;;;4.60;75.60;;;;;;4981866;28;20053;-77
2022/12/02 01:12:06;;;;;;;46.42;26.00;;;4.70;75.50;;;;;;5007099;28;20041;-76
2022/12/02 01:14:32;;;;;;;48.17;26.17;;;4.60;75.50;;;;;;4988282;28;20073;-77
2022/12/02 01:16:57;;;;;;;49.20;25.27;;;4.60;75.30;;;;;;4998143;28;20038;-76
2022/12/02 01:19:23;;;;;;;47.08;24.95;;;4.60;75.30;;;;;;5015723;28;20060;-76
2022/12/02 01:21:49;;;;;;;48.20;26.10;;;4.60;75.50;;;;;;4998164;28;20041;-76
2022/12/02 01:24:15;;;;;;;46.22;24.17;;;4.60;75.70;;;;;;5002372;28;20038;-77
2022/12/02 01:26:40;;;;;;;54.08;27.83;;;4.60;75.70;;;;;;4998419;28;20041;-76
2022/12/02 01:29:06;;;;;;;53.75;27.10;;;4.60;75.70;;;;;;4998414;28;20085;-76
2022/12/02 01:31:32;;;;;;;49.13;26.88;;;4.60;75.70;;;;;;5006339;28;20042;-76
2022/12/02 01:33:58;;;;;;;47.60;25.50;;;4.60;75.70;;;;;;4997923;28;20168;-76
2022/12/02 01:36:24;;;;;;;47.53;25.45;;;4.60;75.70;;;;;;4998199;28;20041;-76
2022/12/02 01:38:49;;;;;;;55.05;27.30;;;4.60;75.60;;;;;;4998052;28;20077;-76
2022/12/02 01:41:15;;;;;;;56.47;27.67;;;4.60;75.60;;;;;;4997997;28;20481;-75
2022/12/02 01:43:41;;;;;;;51.83;25.60;;;4.60;75.50;;;;;;4997456;28;20057;-76
2022/12/02 01:46:07;;;;;;;49.15;25.38;;;4.60;75.50;;;;;;5007818;28;20042;-76
2022/12/02 01:48:35;;;;;;;51.72;26.55;;;4.50;75.40;;;;;;4996853;28;20049;-77
2022/12/02 01:51:01;;;;;;;50.03;24.33;;;4.50;75.40;;;;;;4997183;28;20040;-76
2022/12/02 01:53:26;;;;;;;52.90;26.45;;;4.50;75.50;;;;;;4981428;28;20044;-76
2022/12/02 01:55:52;;;;;;;49.55;26.73;;;4.50;75.50;;;;;;4997800;28;20042;-76
2022/12/02 01:58:22;;;;;;;48.38;25.35;;;4.50;75.60;;;;;;5014984;28;20377;-76
2022/12/02 02:00:48;;;;;;;49.63;25.90;;;4.50;75.80;;;;;;5017251;28;20041;-76
2022/12/02 02:03:13;;;;;;;51.90;26.08;;;4.50;75.70;;;;;;5012202;28;20042;-76
2022/12/02 02:05:39;;;;;;;50.00;24.95;;;4.50;75.70;;;;;;5000578;28;20489;-76
2022/12/02 02:08:08;;;;;;;51.90;26.17;;;4.50;75.60;;;;;;5000754;28;20099;-76
2022/12/02 02:10:35;;;;;;;46.25;24.90;;;4.50;75.50;;;;;;5000203;28;20072;-76
2022/12/02 02:13:02;;;;;;;48.33;24.77;;;4.50;75.40;;;;;;4999111;28;20091;-76
2022/12/02 02:15:28;;;;;;;48.35;25.45;;;4.50;75.30;;;;;;4997010;28;20115;-76
2022/12/02 02:17:55;;;;;;;49.15;26.63;;;4.50;75.20;;;;;;4997994;28;20049;-75
2022/12/02 02:20:23;;;;;;;48.55;25.58;;;4.50;75.10;;;;;;4996483;28;20049;-75
2022/12/02 02:22:56;;;;;;;45.63;24.83;;;4.50;74.90;;;;;;5021966;28;20404;-76
2022/12/02 02:25:23;;;;;;;45.97;25.55;;;4.50;74.70;;;;;;5010602;28;20044;-76
2022/12/02 02:27:56;;;;;;;48.55;25.30;;;4.60;75.00;;;;;;4980891;28;20045;-76
2022/12/02 02:30:22;;;;;;;45.25;24.58;;;4.50;74.90;;;;;;5014573;28;20046;-76
2022/12/02 02:32:49;;;;;;;49.35;24.38;;;4.50;74.90;;;;;;5001242;28;20388;-76
2022/12/02 02:35:16;;;;;;;45.42;22.55;;;4.50;74.80;;;;;;4998318;28;20038;-76
2022/12/02 02:37:42;;;;;;;39.75;21.45;;;4.40;74.70;;;;;;4996848;28;20073;-76
2022/12/02 02:40:10;;;;;;;39.00;21.60;;;4.50;74.60;;;;;;4996625;28;20050;-76
2022/12/02 02:42:36;;;;;;;40.38;20.77;;;4.40;74.50;;;;;;5008541;28;20085;-76
2022/12/02 02:45:02;;;;;;;36.08;20.20;;;4.40;74.40;;;;;;4996434;28;20050;-76
2022/12/02 02:47:28;;;;;;;37.75;19.95;;;4.40;74.40;;;;;;4980291;28;20037;-76
2022/12/02 02:49:54;;;;;;;35.08;19.02;;;4.40;74.40;;;;;;5013906;28;20056;-70
2022/12/02 02:52:19;;;;;;;35.72;19.27;;;4.40;74.50;;;;;;4995980;28;20065;-69
2022/12/02 02:54:45;;;;;;;37.67;18.58;;;4.40;74.60;;;;;;4996791;28;20050;-69
2022/12/02 02:57:11;;;;;;;30.77;16.92;;;4.40;74.60;;;;;;4980878;28;20038;-69
2022/12/02 02:59:40;;;;;;;31.08;16.45;;;4.40;74.50;;;;;;4982640;28;20056;-69
2022/12/02 03:02:09;;;;;;;29.35;16.55;;;4.40;74.20;;;;;;5015552;28;20041;-69
2022/12/02 03:04:35;;;;;;;29.00;15.90;;;4.40;74.00;;;;;;5001792;28;20041;-69
2022/12/02 03:07:01;;;;;;;26.45;14.90;;;4.40;73.80;;;;;;4996375;28;20594;-68
2022/12/02 03:09:26;;;;;;;27.40;14.40;;;4.30;73.40;;;;;;4976321;28;20560;-69
2022/12/02 03:11:53;;;;;;;30.20;14.98;;;4.30;73.30;;;;;;4982918;28;21954;-69
2022/12/02 03:14:20;;;;;;;23.15;12.63;;;4.30;73.30;;;;;;4987581;28;20553;-69
2022/12/02 03:16:46;;;;;;;24.08;12.93;;;4.30;73.10;;;;;;4995540;28;20077;-69
2022/12/02 03:19:13;;;;;;;24.05;13.55;;;4.30;73.30;;;;;;4992135;28;20544;-69
2022/12/02 03:21:39;;;;;;;22.77;12.98;;;4.30;73.10;;;;;;4992516;28;20517;-69
2022/12/02 03:24:05;;;;;;;21.25;12.48;;;4.30;73.10;;;;;;4993200;28;20034;-69
2022/12/02 03:26:32;;;;;;;24.60;13.50;;;4.30;72.90;;;;;;4991086;28;20046;-69
2022/12/02 03:28:59;;;;;;;22.92;13.05;;;4.20;72.80;;;;;;5006014;28;20085;-69
2022/12/02 03:31:26;;;;;;;26.90;14.40;;;4.20;73.00;;;;;;4992530;28;20047;-69
2022/12/02 03:33:53;;;;;;;25.75;14.55;;;4.30;73.20;;;;;;4992314;28;20049;-69
2022/12/02 03:36:20;;;;;;;26.30;14.38;;;4.20;73.10;;;;;;4992767;28;20389;-69
2022/12/02 03:38:46;;;;;;;26.23;13.98;;;4.20;73.10;;;;;;4992089;28;20034;-69
2022/12/02 03:41:12;;;;;;;28.08;14.35;;;4.20;73.30;;;;;;4984616;28;20073;-69
2022/12/02 03:43:38;;;;;;;26.42;14.93;;;4.20;73.30;;;;;;5006468;28;20038;-69
2022/12/02 03:46:05;;;;;;;25.13;13.98;;;4.20;73.20;;;;;;4996823;28;20041;-69
2022/12/02 03:48:31;;;;;;;22.80;14.10;;;4.20;73.30;;;;;;4992090;28;20121;-69
2022/12/02 03:50:57;;;;;;;24.77;14.18;;;4.30;73.30;;;;;;4991761;28;20142;-69
2022/12/02 03:53:23;;;;;;;26.23;15.07;;;4.20;73.30;;;;;;4992167;28;20030;-69
2022/12/02 03:55:49;;;;;;;25.83;14.88;;;4.20;73.20;;;;;;5011826;28;20120;-69
2022/12/02 03:58:15;;;;;;;27.05;14.65;;;4.20;73.10;;;;;;4997054;28;20053;-69
2022/12/02 04:00:41;;;;;;;28.48;15.85;;;4.10;73.00;;;;;;4975974;28;20050;-69
2022/12/02 04:03:06;;;;;;;25.95;14.73;;;4.20;73.20;;;;;;4992023;28;20069;-69
2022/12/02 04:05:32;;;;;;;28.15;16.00;;;4.10;73.20;;;;;;4979038;28;20038;-69
2022/12/02 04:07:58;;;;;;;28.67;15.77;;;4.10;73.00;;;;;;5004258;28;20113;-69
2022/12/02 04:10:24;;;;;;;29.40;15.82;;;4.10;73.50;;;;;;4972200;28;20049;-69
2022/12/02 04:12:49;;;;;;;27.10;13.93;;;4.10;73.20;;;;;;4977449;28;20081;-69
2022/12/02 04:15:15;;;;;;;27.60;15.95;;;4.10;73.20;;;;;;4996193;28;20417;-69
2022/12/02 04:17:41;;;;;;;27.13;14.32;;;4.00;73.10;;;;;;4995940;28;20510;-69
2022/12/02 04:20:07;;;;;;;26.75;14.98;;;4.00;73.10;;;;;;4986226;28;20123;-69
2022/12/02 04:22:33;;;;;;;27.73;16.00;;;4.00;73.20;;;;;;4995978;28;20046;-69
2022/12/02 04:25:01;;;;;;;26.60;15.07;;;4.00;73.40;;;;;;4995345;28;20058;-69
2022/12/02 04:27:27;;;;;;;26.73;14.48;;;4.00;73.50;;;;;;4979359;28;20076;-69
2022/12/02 04:29:53;;;;;;;24.67;14.32;;;4.00;73.60;;;;;;4995712;28;20049;-69
2022/12/02 04:32:19;;;;;;;26.35;14.05;;;3.90;73.70;;;;;;4995251;28;20034;-69
2022/12/02 04:34:44;;;;;;;29.40;14.05;;;3.90;73.80;;;;;;5001243;28;20121;-69
2022/12/02 04:37:10;;;;;;;28.38;14.70;;;3.90;73.90;;;;;;4995194;28;20113;-69
2022/12/02 04:39:35;;;;;;;25.90;14.57;;;3.90;74.00;;;;;;4995679;28;20129;-69
2022/12/02 04:42:01;;;;;;;28.85;14.00;;;3.90;74.60;;;;;;4979693;28;20046;-69
2022/12/02 04:44:27;;;;;;;28.85;16.23;;;3.90;74.20;;;;;;4995347;28;20076;-69
2022/12/02 04:46:52;;;;;;;27.88;14.85;;;4.20;74.50;;;;;;4995230;28;20045;-69
2022/12/02 04:49:18;;;;;;;30.15;15.30;;;3.90;74.30;;;;;;4996049;28;20050;-69
2022/12/02 04:51:44;;;;;;;26.42;14.50;;;3.90;74.30;;;;;;4995137;28;20047;-69
2022/12/02 04:54:09;;;;;;;29.77;16.27;;;4.00;74.50;;;;;;4977111;28;20043;-69
2022/12/02 04:56:35;;;;;;;31.25;15.55;;;3.90;74.40;;;;;;4995376;28;20038;-69
2022/12/02 04:59:01;;;;;;;29.70;15.15;;;4.00;74.50;;;;;;4995221;28;20182;-68
2022/12/02 05:01:26;;;;;;;28.70;14.82;;;3.90;74.50;;;;;;4998642;28;20050;-69
2022/12/02 05:03:52;;;;;;;28.95;15.10;;;4.00;74.70;;;;;;5000230;28;20070;-69
2022/12/02 05:06:18;;;;;;;29.35;16.17;;;3.90;74.80;;;;;;4994482;28;20124;-69
2022/12/02 05:08:43;;;;;;;29.67;15.55;;;3.90;74.90;;;;;;4994886;28;20054;-69
2022/12/02 05:11:09;;;;;;;32.42;15.93;;;4.00;74.90;;;;;;4995960;28;20034;-69
2022/12/02 05:13:35;;;;;;;33.65;16.48;;;4.00;74.90;;;;;;4994209;28;20042;-69
2022/12/02 05:16:00;;;;;;;35.03;16.08;;;4.00;74.80;;;;;;4997814;28;20049;-69
2022/12/02 05:18:26;;;;;;;28.42;15.88;;;4.00;74.90;;;;;;4964861;28;20112;-69
2022/12/02 05:20:52;;;;;;;29.67;15.80;;;4.00;75.00;;;;;;4981248;28;20190;-69
2022/12/02 05:23:17;;;;;;;32.45;16.83;;;4.00;75.10;;;;;;4979103;28;20049;-69
2022/12/02 05:25:43;;;;;;;33.03;17.45;;;4.00;75.10;;;;;;4997363;28;20493;-69
2022/12/02 05:28:09;;;;;;;35.00;17.85;;;4.10;74.90;;;;;;4998108;28;20409;-69
2022/12/02 05:30:34;;;;;;;33.10;17.35;;;4.00;74.70;;;;;;5014481;28;20043;-69
2022/12/02 05:33:00;;;;;;;38.22;18.65;;;4.00;74.70;;;;;;4997747;28;20038;-70
2022/12/02 05:35:26;;;;;;;35.13;18.35;;;4.00;74.70;;;;;;4981685;28;20042;-69
2022/12/02 05:37:51;;;;;;;34.35;18.13;;;4.40;74.70;;;;;;4997467;28;20052;-68
2022/12/02 05:40:17;;;;;;;40.00;20.10;;;4.00;74.60;;;;;;4978232;28;20100;-70
2022/12/02 05:42:43;;;;;;;37.70;18.80;;;4.00;74.70;;;;;;5004345;28;20045;-69
2022/12/02 05:45:18;;;;;;;35.50;17.65;;;4.00;74.80;;;;;;5015385;28;20099;-69
2022/12/02 05:47:49;;;;;;;39.75;19.40;;;4.00;74.90;;;;;;4997337;28;20124;-70
2022/12/02 05:50:14;;;;;;;38.30;18.92;;;4.00;74.80;;;;;;4997440;28;20054;-70
2022/12/02 05:52:42;;;;;;;35.88;18.90;;;4.00;74.90;;;;;;4981989;28;20063;-69
2022/12/02 05:55:17;;;;;;;34.28;18.08;;;4.00;75.00;;;;;;4997557;28;20477;-69
2022/12/02 05:57:44;;;;;;;41.75;21.42;;;4.00;75.10;;;;;;5006407;28;20042;-70
2022/12/02 06:00:19;;;;;;;36.75;20.60;;;4.00;75.20;;;;;;4981147;28;20046;-69
2022/12/02 06:02:52;;;;;;;42.15;21.45;;;4.00;75.10;;;;;;4980396;28;20121;-68
2022/12/02 06:05:24;;;;;;;37.65;18.92;;;4.00;75.10;;;;;;5002459;28;20056;-69
2022/12/02 06:08:33;;;;;;;46.45;21.42;;;4.00;75.00;;;;;;5012851;28;20393;-68
2022/12/02 06:11:02;;;;;;;37.38;19.85;;;4.00;74.90;;;;;;4988921;28;20046;-69
2022/12/02 06:13:31;;;;;;;36.67;18.90;;;4.00;74.80;;;;;;4996993;28;20385;-68
2022/12/02 06:15:58;;;;;;;40.60;19.38;;;4.00;74.80;;;;;;4996972;28;20128;-70
2022/12/02 06:18:31;;;;;;;43.05;21.95;;;3.90;74.70;;;;;;5000997;28;20366;-70
2022/12/02 06:21:00;;;;;;;40.35;20.52;;;3.90;74.60;;;;;;4996648;28;20050;-70
2022/12/02 06:23:28;;;;;;;48.60;22.73;;;3.90;74.50;;;;;;4996390;28;20050;-70
2022/12/02 06:25:54;;;;;;;45.67;21.40;;;3.90;74.50;;;;;;4996305;28;20045;-70
2022/12/02 06:28:30;;;;;;;44.83;22.65;;;3.80;74.40;;;;;;4996580;28;20046;-69
2022/12/02 06:31:00;;;;;;;46.38;23.08;;;3.80;74.40;;;;;;4993752;28;20038;-69
2022/12/02 06:33:35;;;;;;;46.45;22.30;;;3.80;74.50;;;;;;4995688;28;20033;-68
2022/12/02 06:36:03;;;;;;;47.90;22.33;;;3.80;74.50;;;;;;5001367;28;20071;-73
2022/12/02 06:38:36;;;;;;;45.50;22.33;;;3.80;74.60;;;;;;5015681;28;20037;-72
2022/12/02 06:41:14;;;;;;;53.45;23.92;;;3.80;74.60;;;;;;4981645;28;20064;-73
2022/12/02 06:43:40;;;;;;;48.67;23.05;;;3.80;74.70;;;;;;4996237;28;20394;-72
2022/12/02 06:46:19;;;;;;;44.60;21.98;;;3.90;74.80;;;;;;5000679;28;20041;-72
2022/12/02 06:48:44;;;;;;;50.08;24.02;;;3.80;74.70;;;;;;5016094;28;20474;-72
2022/12/02 06:51:18;;;;;;;50.47;23.10;;;3.80;74.60;;;;;;4988706;28;20134;-72
2022/12/02 06:53:45;;;;;;;50.20;24.23;;;3.70;74.70;;;;;;4986950;28;20452;-72
2022/12/02 06:56:21;;;;;;;48.65;24.70;;;3.80;74.80;;;;;;4996400;28;20409;-72
2022/12/02 06:58:53;;;;;;;47.28;23.80;;;3.70;74.80;;;;;;4996173;28;20104;-72
2022/12/02 07:01:30;;;;;;;49.17;24.15;;;3.80;74.90;;;;;;5009785;28;20049;-73
2022/12/02 07:04:08;;;;;;;53.28;25.15;;;3.80;75.20;;;;;;5000922;28;20049;-73
2022/12/02 07:06:42;;;;;;;42.85;22.10;;;3.80;74.80;;;;;;4995582;28;20394;-72
2022/12/02 07:09:08;;;;;;;;;;;3.80;74.90;;;;;;4996475;28;20045;-73
2022/12/02 07:11:50;;;;;;;50.08;24.10;;;3.80;74.60;;;;;;5011768;28;19921;-73
2022/12/02 07:14:15;;;;;;;51.92;23.60;;;3.80;74.80;;;;;;5011395;28;20042;-71
2022/12/02 07:16:41;;;;;;;52.35;23.80;;;3.70;74.70;;;;;;4984686;28;20056;-72
2022/12/02 07:19:14;;;;;;;47.47;22.75;;;3.70;74.70;;;;;;5015332;28;20092;-71
2022/12/02 07:21:40;;;;;;;56.33;24.85;;;3.80;74.80;;;;;;4995639;28;20112;-71
2022/12/02 07:24:12;;;;;;;54.67;26.38;;;3.70;74.70;;;;;;4990894;28;20073;-72
2022/12/02 07:26:37;;;;;;;57.38;25.67;;;3.70;74.80;;;;;;4999024;28;20118;-71
2022/12/02 07:29:04;;;;;;;49.17;23.63;;;3.70;74.90;;;;;;4979450;28;20104;-71
2022/12/02 07:31:30;;;;;;;56.67;25.25;;;3.90;75.20;;;;;;5012266;28;20037;-71
2022/12/02 07:33:56;;;;;;;55.63;25.48;;;3.70;75.10;;;;;;5015261;28;20048;-71
2022/12/02 07:36:22;;;;;;;51.97;25.02;;;3.80;75.20;;;;;;5015419;28;20041;-71
2022/12/02 07:38:47;;;;;;;56.97;25.08;;;3.80;75.40;;;;;;5005562;28;20099;-71
2022/12/02 07:41:13;;;;;;;59.08;27.77;;;3.90;75.40;;;;;;5015332;28;20065;-72
2022/12/02 07:43:39;;;;;;;53.47;23.45;;;3.80;75.30;;;;;;4993989;28;20121;-69
2022/12/02 07:46:05;;;;;;;55.75;25.27;;;3.80;75.30;;;;;;4995061;28;20485;-68
2022/12/02 07:48:31;;;;;;;53.25;24.40;;;3.80;75.20;;;;;;5013041;28;20124;-69
2022/12/02 07:50:56;;;;;;;51.40;24.70;;;3.90;75.30;;;;;;5006890;28;20081;-68
2022/12/02 07:53:22;;;;;;;56.83;26.30;;;3.90;75.30;;;;;;4994930;28;20544;-68
2022/12/02 07:55:48;;;;;;;54.38;25.00;;;3.90;75.30;;;;;;4995667;28;20108;-69
2022/12/02 07:58:13;;;;;;;59.17;24.85;;;3.90;75.30;;;;;;4983418;28;20489;-68
2022/12/02 08:00:39;;;;;;;50.50;25.60;;;3.80;75.10;;;;;;5005591;28;20042;-69
2022/12/02 08:03:05;;;;;;;56.25;25.95;;;3.90;75.30;;;;;;4995180;28;20057;-68
2022/12/02 08:05:31;;;;;;;57.85;28.15;;;3.80;75.30;;;;;;4995556;28;20425;-69
2022/12/02 08:07:56;;;;;;;55.53;24.55;;;4.00;75.50;;;;;;4995311;28;20050;-69
2022/12/02 08:10:22;;;;;;;61.55;27.23;;;3.80;75.40;;;;;;4996783;28;20057;-68
2022/12/02 08:12:48;;;;;;;59.22;25.63;;;3.80;75.50;;;;;;5002787;28;20046;-68
2022/12/02 08:15:14;;;;;;;56.47;26.25;;;3.80;75.50;;;;;;5007450;28;20484;-69
2022/12/02 08:17:41;;;;;;;58.25;26.73;;;3.80;75.60;;;;;;4995165;28;20104;-69
2022/12/02 08:20:09;;;;;;;57.42;26.73;;;3.70;75.70;;;;;;4978856;28;20069;-76
2022/12/02 08:22:35;;;;;;;60.72;28.65;;;3.80;75.80;;;;;;4995325;28;20052;-75
2022/12/02 08:25:02;;;;;;;59.00;25.73;;;3.80;75.90;;;;;;5009101;28;20041;-76
2022/12/02 08:27:27;;;;;;;52.92;24.08;;;3.70;75.80;;;;;;5008092;28;20046;-76
2022/12/02 08:29:54;;;;;;;55.65;26.10;;;3.70;75.80;;;;;;4996201;28;20100;-76
2022/12/02 08:32:20;;;;;;;57.58;26.95;;;3.70;75.70;;;;;;4995238;28;20046;-76
2022/12/02 08:34:46;;;;;;;60.95;28.48;;;3.70;75.90;;;;;;4995055;28;20120;-76
2022/12/02 08:37:12;;;;;;;58.88;27.35;;;3.70;75.80;;;;;;4995990;28;20080;-76
2022/12/02 08:39:38;;;;;;;58.92;27.10;;;3.70;75.60;;;;;;5014774;28;20049;-76
2022/12/02 08:42:05;;;;;;;57.95;24.70;;;3.70;75.50;;;;;;4995001;28;20054;-76
2022/12/02 08:44:31;;;;;;;57.67;25.60;;;3.70;75.60;;;;;;5012329;28;20034;-76
2022/12/02 08:46:57;;;;;;;58.85;26.92;;;3.70;76.10;;;;;;5003766;28;20516;-75
2022/12/02 08:49:23;;;;;;;59.15;26.45;;;3.60;75.60;;;;;;5013902;28;20041;-76
2022/12/02 08:51:49;;;;;;;58.65;28.15;;;3.60;75.60;;;;;;4998304;28;20390;-76
2022/12/02 08:54:15;;;;;;;66.68;28.98;;;3.60;75.80;;;;;;5032276;28;20056;-75
2022/12/02 08:56:42;;;;;;;67.50;29.20;;;3.60;75.70;;;;;;4991005;28;20061;-76
2022/12/02 08:59:08;;;;;;;70.35;29.17;;;3.50;75.70;;;;;;4995979;28;20073;-75
2022/12/02 09:01:33;;;;;;;62.40;26.90;;;3.60;75.70;;;;;;4998329;28;20528;-75
2022/12/02 09:03:59;;;;;;;68.68;27.95;;;3.50;75.50;;;;;;4971217;28;20050;-76
2022/12/02 09:06:25;;;;;;;71.65;28.55;;;3.50;75.50;;;;;;4978711;28;20045;-76
2022/12/02 09:08:51;;;;;;;69.43;28.88;;;3.50;76.00;;;;;;4962916;28;20050;-76
2022/12/02 09:11:16;;;;;;;68.30;27.83;;;3.50;75.70;;;;;;4971725;28;20403;-76
2022/12/02 09:13:42;;;;;;;73.22;30.17;;;3.40;75.60;;;;;;4998184;28;20034;-76
2022/12/02 09:16:08;;;;;;;72.13;30.90;;;3.40;75.70;;;;;;4982131;28;20468;-75
2022/12/02 09:18:33;;;;;;;73.97;31.13;;;3.40;75.80;;;;;;4981782;28;20046;-75
2022/12/02 09:20:59;;;;;;;67.15;27.25;;;3.40;76.00;;;;;;4998160;28;20042;-75
2022/12/02 09:23:25;;;;;;;63.78;28.35;;;3.40;76.00;;;;;;5015525;28;20064;-75
2022/12/02 09:25:50;;;;;;;59.10;25.20;;;3.40;76.10;;;;;;5015485;28;20584;-76
2022/12/02 09:28:16;;;;;;;55.40;24.48;;;3.40;75.90;;;;;;4997959;28;20096;-76
2022/12/02 09:30:42;;;;;;;56.72;24.92;;;3.40;75.90;;;;;;5009386;28;20374;-76
2022/12/02 09:33:07;;;;;;;54.80;24.67;;;3.30;75.70;;;;;;5015245;28;20378;-75
2022/12/02 09:35:33;;;;;;;52.90;22.70;;;3.40;75.80;;;;;;5015811;28;20367;-76
2022/12/02 09:37:59;;;;;;;55.97;24.05;;;3.40;75.80;;;;;;4981829;28;20469;-76
2022/12/02 09:40:24;;;;;;;49.05;22.58;;;3.40;75.70;;;;;;4977572;28;20092;-75
2022/12/02 09:42:51;;;;;;;53.33;23.70;;;3.40;75.60;;;;;;4992758;28;20046;-76
2022/12/02 09:45:17;;;;;;;54.05;23.40;;;3.40;75.60;;;;;;4981398;28;20478;-75
2022/12/02 09:47:42;;;;;;;55.05;23.92;;;3.40;75.80;;;;;;4989632;28;20057;-76
2022/12/02 09:50:12;;;;;;;58.47;24.42;;;3.40;75.80;;;;;;4997534;28;20100;-76
2022/12/02 09:52:38;;;;;;;52.75;24.25;;;3.50;75.80;;;;;;5014647;28;20095;-75
2022/12/02 09:55:11;;;;;;;55.03;23.77;;;3.50;75.80;;;;;;4997166;28;20050;-76
2022/12/02 09:57:37;;;;;;;49.83;23.17;;;3.50;75.70;;;;;;4997200;28;20080;-75
2022/12/02 10:00:07;;;;;;;50.53;22.85;;;3.50;75.50;;;;;;4981226;28;20077;-75
2022/12/02 10:02:47;;;;;;;52.15;23.90;;;3.50;75.50;;;;;;4993651;28;20061;-75
2022/12/02 10:05:26;;;;;;;51.42;23.70;;;3.50;75.30;;;;;;4997236;28;20417;-75
2022/12/02 10:07:55;;;;;;;51.40;24.40;;;3.50;75.40;;;;;;4997263;28;20045;-75
2022/12/02 10:10:24;;;;;;;61.95;26.58;;;3.60;75.60;;;;;;4999122;28;20092;-75
2022/12/02 10:12:51;;;;;;;56.20;24.67;;;3.50;75.70;;;;;;5016797;28;20045;-75
2022/12/02 10:15:22;;;;;;;53.97;23.92;;;3.60;75.70;;;;;;5007961;28;20037;-75
2022/12/02 10:17:48;;;;;;;53.78;24.05;;;3.60;76.00;;;;;;4996792;28;20120;-75
2022/12/02 10:20:19;;;;;;;50.88;24.67;;;3.60;75.40;;;;;;4996719;28;20061;-75
2022/12/02 10:23:13;;;;;;;56.28;23.02;;;3.60;75.60;;;;;;4996705;28;20057;-75
2022/12/02 10:25:41;;;;;;;49.22;23.48;;;3.60;75.50;;;;;;4996514;28;20046;-69
2022/12/02 10:28:23;;;;;;;45.97;22.05;;;3.60;75.50;;;;;;4997062;28;20045;-69
2022/12/02 10:30:53;;;;;;;48.65;22.13;;;3.60;75.30;;;;;;5011474;28;20116;-69
2022/12/02 10:33:24;;;;;;;53.33;22.58;;;3.60;75.40;;;;;;4997539;28;20037;-70
2022/12/02 10:35:51;;;;;;;50.45;22.15;;;3.60;75.30;;;;;;4996522;28;20394;-69
2022/12/02 10:38:40;;;;;;;45.72;21.10;;;3.70;75.30;;;;;;5011767;28;20052;-69
2022/12/02 10:41:23;;;;;;;43.65;20.85;;;3.60;75.10;;;;;;4996702;28;20042;-69
2022/12/02 10:43:51;;;;;;;49.50;21.75;;;3.60;74.90;;;;;;4990126;28;20393;-69
2022/12/02 10:46:19;;;;;;;49.28;21.98;;;3.70;74.90;;;;;;5003207;28;20053;-70
2022/12/02 10:48:45;;;;;;;50.80;21.90;;;3.70;74.90;;;;;;5003303;28;20045;-69
2022/12/02 10:51:19;;;;;;;53.95;22.73;;;3.70;75.00;;;;;;5001320;28;20046;-69
2022/12/02 10:53:51;;;;;;;53.57;22.80;;;3.70;74.90;;;;;;5002508;28;20506;-69
2022/12/02 10:56:22;;;;;;;53.55;22.67;;;3.70;74.70;;;;;;5008413;28;20038;-73
2022/12/02 10:58:54;;;;;;;50.25;21.77;;;3.70;74.80;;;;;;4999224;28;20037;-69
2022/12/02 11:01:20;;;;;;;58.17;25.15;;;3.70;75.00;;;;;;5014892;28;20041;-69
2022/12/02 11:03:46;;;;;;;61.65;25.25;;;3.70;75.10;;;;;;4999501;28;20472;-69
2022/12/02 11:06:18;;;;;;;61.72;24.85;;;3.70;75.20;;;;;;4996198;28;20037;-69
2022/12/02 11:08:46;;;;;;;50.88;22.08;;;3.70;75.20;;;;;;4996034;28;20048;-69
2022/12/02 11:11:23;;;;;;;53.05;23.85;;;3.80;75.10;;;;;;4979802;28;20042;-69
2022/12/02 11:13:59;;;;;;;55.65;22.52;;;3.70;75.30;;;;;;4996104;28;20050;-69
2022/12/02 11:16:27;;;;;;;49.25;21.67;;;3.70;74.80;;;;;;4996320;28;20397;-69
2022/12/02 11:19:08;;;;;;;54.88;24.45;;;3.70;74.80;;;;;;4992366;28;20137;-69
2022/12/02 11:21:37;;;;;;;46.92;21.98;;;3.70;74.90;;;;;;4975173;28;20053;-69
2022/12/02 11:24:27;;;;;;;61.55;26.13;;;3.80;75.00;;;;;;4974404;28;20152;-69
2022/12/02 11:26:59;;;;;;;50.50;22.58;;;3.70;74.90;;;;;;4973420;28;20113;-69
2022/12/02 11:29:29;;;;;;;54.30;23.60;;;3.70;74.80;;;;;;4973282;28;20054;-69
2022/12/02 11:32:20;;;;;;;57.05;23.52;;;3.70;74.70;;;;;;4980288;28;20081;-69
2022/12/02 11:34:47;;;;;;;45.55;21.25;;;3.70;74.80;;;;;;5007839;28;20365;-69
2022/12/02 11:37:39;;;;;;;54.33;23.98;;;3.80;74.90;;;;;;5011549;28;20041;-75
2022/12/02 11:40:30;;;;;;;52.70;23.02;;;3.70;74.50;;;;;;5011742;28;20112;-75
2022/12/02 11:43:39;;;;;;;50.30;22.85;;;3.70;74.50;;;;;;4977164;28;20061;-75
2022/12/02 11:46:05;;;;;;;48.92;21.40;;;3.70;74.40;;;;;;5001402;28;20042;-75
2022/12/02 11:48:30;;;;;;;43.90;20.58;;;3.70;74.50;;;;;;4994173;28;20046;-75
2022/12/02 11:50:56;;;;;;;46.38;22.35;;;3.70;74.50;;;;;;4993314;28;20043;-75
2022/12/02 11:53:23;;;;;;;48.22;21.42;;;3.80;74.50;;;;;;4990174;28;20070;-75
2022/12/02 11:55:53;;;;;;;52.22;23.70;;;3.70;74.40;;;;;;4994862;28;20038;-75
2022/12/02 11:58:26;;;;;;;43.10;21.17;;;3.70;74.40;;;;;;4992421;28;20455;-75
2022/12/02 12:01:17;;;;;;;48.95;23.40;;;3.70;74.20;;;;;;4993488;28;20398;-75
2022/12/02 12:03:44;;;;;;;46.47;24.13;;;3.70;74.00;;;;;;5008919;28;20409;-75
2022/12/02 12:06:16;;;;;;;54.63;25.58;;;3.70;74.00;;;;;;5011581;28;20441;-75
2022/12/02 12:08:45;;;;;;;53.63;25.23;;;3.60;73.80;;;;;;5011563;28;20045;-75
2022/12/02 12:11:33;;;;;;;47.97;25.23;;;3.70;73.90;;;;;;5012544;28;20054;-69
2022/12/02 12:14:06;;;;;;;55.53;25.08;;;3.70;73.80;;;;;;4991839;28;20410;-69
2022/12/02 12:16:37;;;;;;;56.88;27.60;;;3.70;74.00;;;;;;4993030;28;20045;-69
2022/12/02 12:19:12;;;;;;;54.00;25.42;;;3.70;74.10;;;;;;4992963;28;20125;-75
2022/12/02 12:21:46;;;;;;;56.47;26.35;;;3.70;74.20;;;;;;4993696;28;20097;-75
2022/12/02 12:24:22;;;;;;;62.70;28.00;;;3.70;74.20;;;;;;5011366;28;20066;-76
2022/12/02 12:26:54;;;;;;;62.08;28.67;;;3.70;74.30;;;;;;5002195;28;20517;-75
2022/12/02 12:29:22;;;;;;;63.85;28.67;;;3.80;74.40;;;;;;5011527;28;20133;-75
2022/12/02 12:31:48;;;;;;;62.38;29.50;;;3.80;74.50;;;;;;5006411;28;20034;-75
2022/12/02 12:34:16;;;;;;;70.70;30.35;;;3.80;74.50;;;;;;4993376;28;20441;-75
2022/12/02 12:36:43;;;;;;;64.22;31.50;;;3.70;74.30;;;;;;4979328;28;20089;-75
2022/12/02 12:39:10;;;;;;;66.32;31.77;;;3.70;74.20;;;;;;4995916;28;20069;-75
2022/12/02 12:41:36;;;;;;;66.75;31.10;;;3.70;74.30;;;;;;4995575;28;20125;-75
2022/12/02 12:44:03;;;;;;;69.72;31.60;;;3.70;74.40;;;;;;5000044;28;20120;-75
2022/12/02 12:46:28;;;;;;;67.68;31.00;;;3.70;74.30;;;;;;5002692;28;20053;-75